createdAt,value
2018-01-12T00:00:21.852Z,94.89
2018-01-12T00:01:02.416Z,94.42
2018-01-12T00:01:43.119Z,94.23
2018-01-12T00:02:23.605Z,94.6
2018-01-12T00:03:04.180Z,94.32
2018-01-12T00:03:44.744Z,94.89
2018-01-12T00:04:25.326Z,94.98
2018-01-12T00:05:05.884Z,94.7
2018-01-12T00:05:46.452Z,94.79
2018-01-12T00:06:27.039Z,94.79
2018-01-12T00:07:07.618Z,94.7
2018-01-12T00:07:48.191Z,94.32
2018-01-12T00:08:28.769Z,94.6
2018-01-12T00:09:09.327Z,94.32
2018-01-12T00:09:49.891Z,94.7
2018-01-12T00:10:30.448Z,94.6
2018-01-12T00:11:11.015Z,94.89
2018-01-12T00:11:51.594Z,95.07
2018-01-12T00:12:32.192Z,94.98
2018-01-12T00:13:12.767Z,94.98
2018-01-12T00:13:53.352Z,94.89
2018-01-12T00:14:33.925Z,94.6
2018-01-12T00:15:14.502Z,94.98
2018-01-12T00:15:55.058Z,95.07
2018-01-12T00:16:35.625Z,94.7
2018-01-12T00:17:16.202Z,95.55
2018-01-12T00:17:56.798Z,95.36
2018-01-12T00:18:37.370Z,95.36
2018-01-12T00:19:17.957Z,95.36
2018-01-12T00:19:58.522Z,95.36
2018-01-12T00:20:39.093Z,95.36
2018-01-12T00:21:19.661Z,95.26
2018-01-12T00:22:00.259Z,95.36
2018-01-12T00:22:40.814Z,95.36
2018-01-12T00:23:21.373Z,95.36
2018-01-12T00:24:01.952Z,95.45
2018-01-12T00:24:42.516Z,95.45
2018-01-12T00:25:23.108Z,95.65
2018-01-12T00:26:03.671Z,95.65
2018-01-12T00:26:44.253Z,95.45
2018-01-12T00:27:24.820Z,95.45
2018-01-12T00:28:05.417Z,94.89
2018-01-12T00:28:45.971Z,95.45
2018-01-12T00:29:26.531Z,95.45
2018-01-12T00:30:07.116Z,95.07
2018-01-12T00:30:47.667Z,95.26
2018-01-12T00:31:28.242Z,95.45
2018-01-12T00:32:08.819Z,95.17
2018-01-12T00:32:49.402Z,95.26
2018-01-12T00:33:29.980Z,95.17
2018-01-12T00:34:10.572Z,95.17
2018-01-12T00:34:51.131Z,95.26
2018-01-12T00:35:31.720Z,95.26
2018-01-12T00:36:12.288Z,94.98
2018-01-12T00:36:52.880Z,95.36
2018-01-12T00:37:33.469Z,95.26
2018-01-12T00:38:14.029Z,95.36
2018-01-12T00:38:54.612Z,95.07
2018-01-12T00:39:35.202Z,95.07
2018-01-12T00:40:15.768Z,94.89
2018-01-12T00:40:56.334Z,94.89
2018-01-12T00:41:36.901Z,94.89
2018-01-12T00:42:17.459Z,94.98
2018-01-12T00:42:58.055Z,95.36
2018-01-12T00:43:38.628Z,95.55
2018-01-12T00:44:19.195Z,95.55
2018-01-12T00:44:59.764Z,95.65
2018-01-12T00:45:40.341Z,95.65
2018-01-12T00:46:20.904Z,95.65
2018-01-12T00:47:01.582Z,95.65
2018-01-12T00:47:42.143Z,95.65
2018-01-12T00:48:22.707Z,95.65
2018-01-12T00:49:03.326Z,95.74
2018-01-12T00:49:43.912Z,95.65
2018-01-12T00:50:24.485Z,95.45
2018-01-12T00:51:05.051Z,95.74
2018-01-12T00:51:45.632Z,96.03
2018-01-12T00:52:26.206Z,95.17
2018-01-12T00:53:06.763Z,95.26
2018-01-12T00:53:47.368Z,94.98
2018-01-12T00:54:27.910Z,94.98
2018-01-12T00:55:08.485Z,95.74
2018-01-12T00:55:49.075Z,95.45
2018-01-12T00:56:29.646Z,95.84
2018-01-12T00:57:10.216Z,95.74
2018-01-12T00:57:50.783Z,95.74
2018-01-12T00:58:31.366Z,95.74
2018-01-12T00:59:11.938Z,95.45
2018-01-12T00:59:52.500Z,95.36
2018-01-12T01:00:33.061Z,95.65
2018-01-12T01:01:13.654Z,95.74
2018-01-12T01:01:54.231Z,95.74
2018-01-12T01:02:34.823Z,95.84
2018-01-12T01:03:15.388Z,95.45
2018-01-12T01:03:56.011Z,95.55
2018-01-12T01:04:36.588Z,95.45
2018-01-12T01:05:17.148Z,95.55
2018-01-12T01:05:57.703Z,95.36
2018-01-12T01:06:38.272Z,95.84
2018-01-12T01:07:18.837Z,95.74
2018-01-12T01:07:59.397Z,95.65
2018-01-12T01:08:39.968Z,95.74
2018-01-12T01:09:20.535Z,95.84
2018-01-12T01:10:01.126Z,95.93
2018-01-12T01:10:41.700Z,94.89
2018-01-12T01:11:22.285Z,95.65
2018-01-12T01:12:02.847Z,95.07
2018-01-12T01:12:43.431Z,95.26
2018-01-12T01:13:24.017Z,94.89
2018-01-12T01:14:04.583Z,94.93
2018-01-12T01:14:45.143Z,95.65
2018-01-12T01:15:25.707Z,95.45
2018-01-12T01:16:06.285Z,95.65
2018-01-12T01:16:46.841Z,95.55
2018-01-12T01:17:27.401Z,95.74
2018-01-12T01:18:08.682Z,95.6
2018-01-12T01:18:49.245Z,95.55
2018-01-12T01:19:29.835Z,95.41
2018-01-12T01:20:10.411Z,95.41
2018-01-12T01:20:51.067Z,95.31
2018-01-12T01:21:31.641Z,95.55
2018-01-12T01:22:12.204Z,95.5
2018-01-12T01:22:52.762Z,95.88
2018-01-12T01:23:33.347Z,96.07
2018-01-12T01:24:13.921Z,95.98
2018-01-12T01:24:54.467Z,96.07
2018-01-12T01:25:35.099Z,96.07
2018-01-12T01:26:15.653Z,96.07
2018-01-12T01:26:56.213Z,95.88
2018-01-12T01:27:36.785Z,95.6
2018-01-12T01:28:17.345Z,95.6
2018-01-12T01:28:57.927Z,95.6
2018-01-12T01:29:38.510Z,95.98
2018-01-12T01:30:19.087Z,95.5
2018-01-12T01:30:59.668Z,95.6
2018-01-12T01:31:40.218Z,95.69
2018-01-12T01:32:20.790Z,95.79
2018-01-12T01:33:01.333Z,95.6
2018-01-12T01:33:41.893Z,96.17
2018-01-12T01:34:22.469Z,96.17
2018-01-12T01:35:03.093Z,95.79
2018-01-12T01:35:43.672Z,95.88
2018-01-12T01:36:24.289Z,96.31
2018-01-12T01:37:04.873Z,96.07
2018-01-12T01:37:45.447Z,95.6
2018-01-12T01:38:26.015Z,96.45
2018-01-12T01:39:06.580Z,95.98
2018-01-12T01:39:47.150Z,96.64
2018-01-12T01:40:27.714Z,96.36
2018-01-12T01:41:08.290Z,96.41
2018-01-12T01:41:48.862Z,96.88
2018-01-12T01:42:29.432Z,96.88
2018-01-12T01:43:10.066Z,96.78
2018-01-12T01:43:50.642Z,95.93
2018-01-12T01:44:31.209Z,96.5
2018-01-12T01:45:11.772Z,95.65
2018-01-12T01:45:52.340Z,95.65
2018-01-12T01:46:32.955Z,95.55
2018-01-12T01:47:13.541Z,95.55
2018-01-12T01:47:54.110Z,96.03
2018-01-12T01:48:34.676Z,95.65
2018-01-12T01:49:15.233Z,95.55
2018-01-12T01:49:55.809Z,95.55
2018-01-12T01:50:36.394Z,95.65
2018-01-12T01:51:16.986Z,95.84
2018-01-12T01:51:57.554Z,95.93
2018-01-12T01:52:38.136Z,95.74
2018-01-12T01:53:18.701Z,95.84
2018-01-12T01:53:59.273Z,95.45
2018-01-12T01:54:39.908Z,95.93
2018-01-12T01:55:20.456Z,95.65
2018-01-12T01:56:01.021Z,95.93
2018-01-12T01:56:41.581Z,94.89
2018-01-12T01:57:22.150Z,94.98
2018-01-12T01:58:02.715Z,95.36
2018-01-12T01:58:43.273Z,94.98
2018-01-12T01:59:24.473Z,95.17
2018-01-12T02:00:05.036Z,95.36
2018-01-12T02:00:45.588Z,95.55
2018-01-12T02:01:26.141Z,95.36
2018-01-12T02:02:06.701Z,95.17
2018-01-12T02:02:47.271Z,95.17
2018-01-12T02:03:27.839Z,95.36
2018-01-12T02:04:08.420Z,95.36
2018-01-12T02:04:48.982Z,94.89
2018-01-12T02:05:29.574Z,94.89
2018-01-12T02:06:10.130Z,95.26
2018-01-12T02:06:50.692Z,95.07
2018-01-12T02:07:31.258Z,95.07
2018-01-12T02:08:11.842Z,95.17
2018-01-12T02:08:52.420Z,95.07
2018-01-12T02:09:32.978Z,95.07
2018-01-12T02:10:13.589Z,95.36
2018-01-12T02:10:54.163Z,95.93
2018-01-12T02:11:34.722Z,95.36
2018-01-12T02:12:15.363Z,95.65
2018-01-12T02:12:55.899Z,95.26
2018-01-12T02:13:36.487Z,95.17
2018-01-12T02:14:17.058Z,95.17
2018-01-12T02:14:57.626Z,95.55
2018-01-12T02:15:38.216Z,95.36
2018-01-12T02:16:18.768Z,95.26
2018-01-12T02:16:59.336Z,95.07
2018-01-12T02:17:39.917Z,95.55
2018-01-12T02:18:20.483Z,95.55
2018-01-12T02:19:01.055Z,95.36
2018-01-12T02:19:41.629Z,95.45
2018-01-12T02:20:22.213Z,94.89
2018-01-12T02:21:02.777Z,95.07
2018-01-12T02:21:43.345Z,94.7
2018-01-12T02:22:23.921Z,94.6
2018-01-12T02:23:04.492Z,95.45
2018-01-12T02:23:45.070Z,94.79
2018-01-12T02:24:25.643Z,95.45
2018-01-12T02:25:06.234Z,95.65
2018-01-12T02:25:46.804Z,95.55
2018-01-12T02:26:27.382Z,95.26
2018-01-12T02:27:07.956Z,95.17
2018-01-12T02:27:48.528Z,95.36
2018-01-12T02:28:29.088Z,95.45
2018-01-12T02:29:09.663Z,95.45
2018-01-12T02:29:50.222Z,95.36
2018-01-12T02:30:30.787Z,95.45
2018-01-12T02:31:11.360Z,94.7
2018-01-12T02:31:51.920Z,94.7
2018-01-12T02:32:32.481Z,94.79
2018-01-12T02:33:13.063Z,95.45
2018-01-12T02:33:53.617Z,95.17
2018-01-12T02:34:34.181Z,95.55
2018-01-12T02:35:14.766Z,95.45
2018-01-12T02:35:55.354Z,95.17
2018-01-12T02:36:35.910Z,94.89
2018-01-12T02:37:16.467Z,95.07
2018-01-12T02:37:57.024Z,95.45
2018-01-12T02:38:37.599Z,95.07
2018-01-12T02:39:18.154Z,95.17
2018-01-12T02:39:58.717Z,95.45
2018-01-12T02:40:39.299Z,95.26
2018-01-12T02:41:19.899Z,95.36
2018-01-12T02:42:00.456Z,95.65
2018-01-12T02:42:41.029Z,94.79
2018-01-12T02:43:21.596Z,94.6
2018-01-12T02:44:02.158Z,95.17
2018-01-12T02:44:42.728Z,94.23
2018-01-12T02:45:23.298Z,94.42
2018-01-12T02:46:03.870Z,94.89
2018-01-12T02:46:44.427Z,94.98
2018-01-12T02:47:25.001Z,94.98
2018-01-12T02:48:05.569Z,94.79
2018-01-12T02:48:46.147Z,94.65
2018-01-12T02:49:26.713Z,94.56
2018-01-12T02:50:07.276Z,94.37
2018-01-12T02:50:47.837Z,94.65
2018-01-12T02:51:28.409Z,94.65
2018-01-12T02:52:08.981Z,95.6
2018-01-12T02:52:49.554Z,95.5
2018-01-12T02:53:30.106Z,95.5
2018-01-12T02:54:10.679Z,95.31
2018-01-12T02:54:51.253Z,95.6
2018-01-12T02:55:31.817Z,95.31
2018-01-12T02:56:12.384Z,95.03
2018-01-12T02:56:52.982Z,95.12
2018-01-12T02:57:33.546Z,95.31
2018-01-12T02:58:14.113Z,95.22
2018-01-12T02:58:54.704Z,95.03
2018-01-12T02:59:35.271Z,95.22
2018-01-12T03:00:15.840Z,95.22
2018-01-12T03:00:56.428Z,95.03
2018-01-12T03:01:36.982Z,95.03
2018-01-12T03:02:17.544Z,95.03
2018-01-12T03:02:58.210Z,95.69
2018-01-12T03:03:38.764Z,95.6
2018-01-12T03:04:19.395Z,95.6
2018-01-12T03:04:59.949Z,95.31
2018-01-12T03:05:40.541Z,95.41
2018-01-12T03:06:21.085Z,94.93
2018-01-12T03:07:01.655Z,94.93
2018-01-12T03:07:42.221Z,95.5
2018-01-12T03:08:22.786Z,95.6
2018-01-12T03:09:03.345Z,95.03
2018-01-12T03:09:43.904Z,95.12
2018-01-12T03:10:24.462Z,95.6
2018-01-12T03:11:05.035Z,95.31
2018-01-12T03:11:45.587Z,95.12
2018-01-12T03:12:26.165Z,95.12
2018-01-12T03:13:06.736Z,95.22
2018-01-12T03:13:47.302Z,95.41
2018-01-12T03:14:27.864Z,95.12
2018-01-12T03:15:08.432Z,95.22
2018-01-12T03:15:48.994Z,95.22
2018-01-12T03:16:29.572Z,95.6
2018-01-12T03:17:10.129Z,95.5
2018-01-12T03:17:50.698Z,95.31
2018-01-12T03:18:31.263Z,95.31
2018-01-12T03:19:11.851Z,95.22
2018-01-12T03:19:52.412Z,94.93
2018-01-12T03:20:32.967Z,95.6
2018-01-12T03:21:13.519Z,95.5
2018-01-12T03:21:54.085Z,95.69
2018-01-12T03:22:34.648Z,95.69
2018-01-12T03:23:15.219Z,95.31
2018-01-12T03:23:55.800Z,94.84
2018-01-12T03:24:36.368Z,94.84
2018-01-12T03:25:16.929Z,94.84
2018-01-12T03:25:57.518Z,95.31
2018-01-12T03:26:38.089Z,95.69
2018-01-12T03:27:18.662Z,95.5
2018-01-12T03:27:59.249Z,95.79
2018-01-12T03:28:39.811Z,95.6
2018-01-12T03:29:20.402Z,95.6
2018-01-12T03:30:00.975Z,95.79
2018-01-12T03:30:41.541Z,95.6
2018-01-12T03:31:22.125Z,95.6
2018-01-12T03:32:02.687Z,95.6
2018-01-12T03:32:43.260Z,95.69
2018-01-12T03:33:23.818Z,95.69
2018-01-12T03:34:04.413Z,95.79
2018-01-12T03:34:44.987Z,95.88
2018-01-12T03:35:25.554Z,95.6
2018-01-12T03:36:06.111Z,95.79
2018-01-12T03:36:46.701Z,95.79
2018-01-12T03:37:27.294Z,95.5
2018-01-12T03:38:07.853Z,95.6
2018-01-12T03:38:48.419Z,95.41
2018-01-12T03:39:28.985Z,95.5
2018-01-12T03:40:09.552Z,95.31
2018-01-12T03:40:50.113Z,95.31
2018-01-12T03:41:30.685Z,95.79
2018-01-12T03:42:11.258Z,95.69
2018-01-12T03:42:51.813Z,95.6
2018-01-12T03:43:32.406Z,95.6
2018-01-12T03:44:12.981Z,95.69
2018-01-12T03:44:53.547Z,95.41
2018-01-12T03:45:34.110Z,95.69
2018-01-12T03:46:14.701Z,95.69
2018-01-12T03:46:55.282Z,95.6
2018-01-12T03:47:35.854Z,95.69
2018-01-12T03:48:16.429Z,95.69
2018-01-12T03:48:56.992Z,95.69
2018-01-12T03:49:37.565Z,95.5
2018-01-12T03:50:18.128Z,95.6
2018-01-12T03:50:58.699Z,95.31
2018-01-12T03:51:39.328Z,95.79
2018-01-12T03:52:19.891Z,95.5
2018-01-12T03:53:00.472Z,95.69
2018-01-12T03:53:41.037Z,95.69
2018-01-12T03:54:21.605Z,95.5
2018-01-12T03:55:02.169Z,95.41
2018-01-12T03:55:42.737Z,95.6
2018-01-12T03:56:23.293Z,95.98
2018-01-12T03:57:03.861Z,96.07
2018-01-12T03:57:44.433Z,96.07
2018-01-12T03:58:24.986Z,95.5
2018-01-12T03:59:05.554Z,95.5
2018-01-12T03:59:46.135Z,95.5
2018-01-12T04:00:26.715Z,95.55
2018-01-12T04:01:07.285Z,95.5
2018-01-12T04:01:47.856Z,95.69
2018-01-12T04:02:28.428Z,96.17
2018-01-12T04:03:09.029Z,96.17
2018-01-12T04:03:49.590Z,95.5
2018-01-12T04:04:30.159Z,95.6
2018-01-12T04:05:10.741Z,95.41
2018-01-12T04:05:51.302Z,95.88
2018-01-12T04:06:31.880Z,94.93
2018-01-12T04:07:12.456Z,95.88
2018-01-12T04:07:53.036Z,95.69
2018-01-12T04:08:33.630Z,95.69
2018-01-12T04:09:14.259Z,95.69
2018-01-12T04:09:54.841Z,95.22
2018-01-12T04:10:35.452Z,95.03
2018-01-12T04:11:16.045Z,95.12
2018-01-12T04:11:56.617Z,95.31
2018-01-12T04:12:37.175Z,95.03
2018-01-12T04:13:17.747Z,95.31
2018-01-12T04:13:58.314Z,95.88
2018-01-12T04:14:38.873Z,95.69
2018-01-12T04:15:19.440Z,95.6
2018-01-12T04:16:00.031Z,95.41
2018-01-12T04:16:40.612Z,95.6
2018-01-12T04:17:21.174Z,95.5
2018-01-12T04:18:01.748Z,95.41
2018-01-12T04:18:42.312Z,95.41
2018-01-12T04:19:22.885Z,95.5
2018-01-12T04:20:03.445Z,95.41
2018-01-12T04:20:44.023Z,95.6
2018-01-12T04:21:24.594Z,95.5
2018-01-12T04:22:05.180Z,95.69
2018-01-12T04:22:45.751Z,95.88
2018-01-12T04:23:26.312Z,95.03
2018-01-12T04:24:06.887Z,94.93
2018-01-12T04:24:47.458Z,95.88
2018-01-12T04:25:28.022Z,95.69
2018-01-12T04:26:08.591Z,95.5
2018-01-12T04:26:49.197Z,95.88
2018-01-12T04:27:29.726Z,95.5
2018-01-12T04:28:10.288Z,95.98
2018-01-12T04:28:50.854Z,95.79
2018-01-12T04:29:31.416Z,95.69
2018-01-12T04:30:11.986Z,95.79
2018-01-12T04:30:52.559Z,95.5
2018-01-12T04:31:33.165Z,95.98
2018-01-12T04:32:13.735Z,96.17
2018-01-12T04:32:54.331Z,95.6
2018-01-12T04:33:34.895Z,95.41
2018-01-12T04:34:15.453Z,95.69
2018-01-12T04:34:56.023Z,95.41
2018-01-12T04:35:36.585Z,94.84
2018-01-12T04:36:17.148Z,95.12
2018-01-12T04:36:57.707Z,95.03
2018-01-12T04:37:38.269Z,95.22
2018-01-12T04:38:18.843Z,95.79
2018-01-12T04:38:59.410Z,95.69
2018-01-12T04:39:39.981Z,95.6
2018-01-12T04:40:20.544Z,95.69
2018-01-12T04:41:01.111Z,95.6
2018-01-12T04:41:41.672Z,95.69
2018-01-12T04:42:22.242Z,95.5
2018-01-12T04:43:02.800Z,95.31
2018-01-12T04:43:43.366Z,95.5
2018-01-12T04:44:23.914Z,95.5
2018-01-12T04:45:04.501Z,95.79
2018-01-12T04:45:45.065Z,95.79
2018-01-12T04:46:25.637Z,95.69
2018-01-12T04:47:06.208Z,95.6
2018-01-12T04:47:46.757Z,95.69
2018-01-12T04:48:27.319Z,95.79
2018-01-12T04:49:07.875Z,95.98
2018-01-12T04:49:48.424Z,95.69
2018-01-12T04:50:28.982Z,95.98
2018-01-12T04:51:09.575Z,95.98
2018-01-12T04:51:50.144Z,95.6
2018-01-12T04:52:30.708Z,95.79
2018-01-12T04:53:11.267Z,96.45
2018-01-12T04:53:51.839Z,96.36
2018-01-12T04:54:32.414Z,95.79
2018-01-12T04:55:12.972Z,95.79
2018-01-12T04:55:53.532Z,95.6
2018-01-12T04:56:34.133Z,95.79
2018-01-12T04:57:14.703Z,95.6
2018-01-12T04:57:55.272Z,95.79
2018-01-12T04:58:35.826Z,95.88
2018-01-12T04:59:16.407Z,95.6
2018-01-12T04:59:56.983Z,95.5
2018-01-12T05:00:37.568Z,96.07
2018-01-12T05:01:18.134Z,95.69
2018-01-12T05:01:58.717Z,95.88
2018-01-12T05:02:39.283Z,95.88
2018-01-12T05:03:19.889Z,95.6
2018-01-12T05:04:00.459Z,95.6
2018-01-12T05:04:41.013Z,95.79
2018-01-12T05:05:21.590Z,96.17
2018-01-12T05:06:02.159Z,95.79
2018-01-12T05:06:42.747Z,95.88
2018-01-12T05:07:23.326Z,96.17
2018-01-12T05:08:03.891Z,96.45
2018-01-12T05:08:44.504Z,96.45
2018-01-12T05:09:25.066Z,96.17
2018-01-12T05:10:05.627Z,96.17
2018-01-12T05:10:46.193Z,96.36
2018-01-12T05:11:26.765Z,96.36
2018-01-12T05:12:07.454Z,96.45
2018-01-12T05:12:48.199Z,95.69
2018-01-12T05:13:28.764Z,95.88
2018-01-12T05:14:09.456Z,95.69
2018-01-12T05:14:51.501Z,95.88
2018-01-12T05:15:32.041Z,96.07
2018-01-12T05:16:12.852Z,95.79
2018-01-12T05:16:53.581Z,96.17
2018-01-12T05:17:34.152Z,95.98
2018-01-12T05:18:14.779Z,96.17
2018-01-12T05:18:55.367Z,96.26
2018-01-12T05:19:35.962Z,96.17
2018-01-12T05:20:16.527Z,96.36
2018-01-12T05:20:57.086Z,96.36
2018-01-12T05:21:37.649Z,96.64
2018-01-12T05:22:18.308Z,96.92
2018-01-12T05:22:58.864Z,96.73
2018-01-12T05:23:39.440Z,96.36
2018-01-12T05:24:20.024Z,96.36
2018-01-12T05:25:00.616Z,96.45
2018-01-12T05:25:41.172Z,95.6
2018-01-12T05:26:21.746Z,96.07
2018-01-12T05:27:02.308Z,96.17
2018-01-12T05:27:42.879Z,95.79
2018-01-12T05:28:23.451Z,95.88
2018-01-12T05:29:04.021Z,95.88
2018-01-12T05:29:44.594Z,96.92
2018-01-12T05:30:25.143Z,96.45
2018-01-12T05:31:05.752Z,96.45
2018-01-12T05:31:46.331Z,96.45
2018-01-12T05:32:26.889Z,96.45
2018-01-12T05:33:07.462Z,96.17
2018-01-12T05:33:48.026Z,96.07
2018-01-12T05:34:28.594Z,95.5
2018-01-12T05:35:09.230Z,95.41
2018-01-12T05:35:49.800Z,95.79
2018-01-12T05:36:30.374Z,95.69
2018-01-12T05:37:10.946Z,95.69
2018-01-12T05:37:51.530Z,95.41
2018-01-12T05:38:32.116Z,95.88
2018-01-12T05:39:12.686Z,95.79
2018-01-12T05:39:53.255Z,95.88
2018-01-12T05:40:33.820Z,95.5
2018-01-12T05:41:14.394Z,95.6
2018-01-12T05:41:54.988Z,95.6
2018-01-12T05:42:35.581Z,95.79
2018-01-12T05:43:16.155Z,95.31
2018-01-12T05:43:56.719Z,95.6
2018-01-12T05:44:37.269Z,95.6
2018-01-12T05:45:17.846Z,95.88
2018-01-12T05:45:58.490Z,95.6
2018-01-12T05:46:39.048Z,95.79
2018-01-12T05:47:19.611Z,95.88
2018-01-12T05:48:00.194Z,95.79
2018-01-12T05:48:40.759Z,95.79
2018-01-12T05:49:21.313Z,95.79
2018-01-12T05:50:01.924Z,95.69
2018-01-12T05:50:42.473Z,95.6
2018-01-12T05:51:23.045Z,95.79
2018-01-12T05:52:03.598Z,96.45
2018-01-12T05:52:44.206Z,95.6
2018-01-12T05:53:24.823Z,95.69
2018-01-12T05:54:05.386Z,95.69
2018-01-12T05:54:45.966Z,95.88
2018-01-12T05:55:26.525Z,95.98
2018-01-12T05:56:07.085Z,95.5
2018-01-12T05:56:47.672Z,95.6
2018-01-12T05:57:28.264Z,95.69
2018-01-12T05:58:08.855Z,95.5
2018-01-12T05:58:49.454Z,95.69
2018-01-12T05:59:30.038Z,95.6
2018-01-12T06:00:10.593Z,95.79
2018-01-12T06:00:51.192Z,95.69
2018-01-12T06:01:31.753Z,95.5
2018-01-12T06:02:12.323Z,95.5
2018-01-12T06:02:52.889Z,95.98
2018-01-12T06:03:33.539Z,96.17
2018-01-12T06:04:14.151Z,95.79
2018-01-12T06:04:54.714Z,95.5
2018-01-12T06:05:35.290Z,95.6
2018-01-12T06:06:15.829Z,95.6
2018-01-12T06:06:56.382Z,95.69
2018-01-12T06:07:36.943Z,95.69
2018-01-12T06:08:17.502Z,95.6
2018-01-12T06:08:58.072Z,95.5
2018-01-12T06:09:38.637Z,96.26
2018-01-12T06:10:19.188Z,96.55
2018-01-12T06:10:59.800Z,96.26
2018-01-12T06:11:40.377Z,96.17
2018-01-12T06:12:20.936Z,96.45
2018-01-12T06:13:01.509Z,96.55
2018-01-12T06:13:42.101Z,96.36
2018-01-12T06:14:22.676Z,95.98
2018-01-12T06:15:03.241Z,95.98
2018-01-12T06:15:43.865Z,95.98
2018-01-12T06:16:24.424Z,96.26
2018-01-12T06:17:04.991Z,95.6
2018-01-12T06:17:45.547Z,96.45
2018-01-12T06:18:26.109Z,96.55
2018-01-12T06:19:06.698Z,96.45
2018-01-12T06:19:47.278Z,95.98
2018-01-12T06:20:27.853Z,96.92
2018-01-12T06:21:08.430Z,96.45
2018-01-12T06:21:48.990Z,96.55
2018-01-12T06:22:29.957Z,96.45
2018-01-12T06:23:10.562Z,96.55
2018-01-12T06:23:51.116Z,96.36
2018-01-12T06:24:31.685Z,96.64
2018-01-12T06:25:12.312Z,96.64
2018-01-12T06:25:52.967Z,96.45
2018-01-12T06:26:33.539Z,96.73
2018-01-12T06:27:14.124Z,96.83
2018-01-12T06:27:54.706Z,98.06
2018-01-12T06:28:35.269Z,99.29
2018-01-12T06:29:15.867Z,98.44
2018-01-12T06:29:56.449Z,99.99
2018-01-12T06:30:37.002Z,99.99
2018-01-12T06:31:17.580Z,99.99
2018-01-12T06:31:58.171Z,99.99
2018-01-12T06:32:38.760Z,99.99
2018-01-12T06:33:19.332Z,99.99
2018-01-12T06:33:59.905Z,99.68
2018-01-12T06:34:40.508Z,97.64
2018-01-12T06:35:21.098Z,97.36
2018-01-12T06:36:01.661Z,97.07
2018-01-12T06:36:42.232Z,95.27
2018-01-12T06:37:22.826Z,94.56
2018-01-12T06:38:03.433Z,92.75
2018-01-12T06:38:44.015Z,91.24
2018-01-12T06:39:24.615Z,90.28
2018-01-12T06:40:05.444Z,90
2018-01-12T06:40:46.026Z,89.38
2018-01-12T06:41:26.627Z,88.2
2018-01-12T06:42:07.321Z,85.86
2018-01-12T06:42:47.854Z,85.25
2018-01-12T06:43:28.459Z,85.16
2018-01-12T06:44:09.054Z,84.01
2018-01-12T06:44:49.636Z,85.44
2018-01-12T06:45:30.228Z,86.39
2018-01-12T06:46:10.793Z,87.05
2018-01-12T06:46:51.363Z,86.87
2018-01-12T06:47:31.933Z,86.11
2018-01-12T06:48:12.499Z,84.97
2018-01-12T06:48:53.066Z,84.4
2018-01-12T06:49:33.625Z,84.63
2018-01-12T06:50:14.190Z,85.11
2018-01-12T06:50:54.762Z,84.44
2018-01-12T06:51:35.341Z,83.49
2018-01-12T06:52:15.881Z,83.3
2018-01-12T06:52:56.431Z,83.36
2018-01-12T06:53:37.010Z,83.78
2018-01-12T06:54:17.642Z,83.59
2018-01-12T06:54:58.198Z,84.25
2018-01-12T06:55:38.777Z,84.34
2018-01-12T06:56:19.331Z,82.07
2018-01-12T06:56:59.899Z,81.02
2018-01-12T06:57:40.505Z,79.6
2018-01-12T06:58:21.065Z,79.03
2018-01-12T06:59:01.631Z,78.89
2018-01-12T06:59:42.191Z,79.08
2018-01-12T07:00:22.749Z,79.36
2018-01-12T07:01:03.314Z,80.65
2018-01-12T07:01:43.871Z,80.94
2018-01-12T07:02:24.445Z,81.7
2018-01-12T07:03:05.016Z,82.17
2018-01-12T07:03:45.579Z,82.46
2018-01-12T07:04:26.146Z,83.12
2018-01-12T07:05:06.721Z,83.55
2018-01-12T07:05:47.276Z,84.12
2018-01-12T07:06:27.836Z,84.59
2018-01-12T07:07:08.388Z,84.69
2018-01-12T07:07:48.951Z,85.45
2018-01-12T07:08:29.527Z,85.45
2018-01-12T07:09:10.090Z,86.02
2018-01-12T07:09:50.665Z,86.68
2018-01-12T07:10:31.222Z,86.45
2018-01-12T07:11:11.778Z,86.74
2018-01-12T07:11:52.371Z,86.93
2018-01-12T07:12:32.933Z,87.02
2018-01-12T07:13:13.491Z,86.93
2018-01-12T07:13:54.064Z,87.21
2018-01-12T07:14:34.644Z,87.21
2018-01-12T07:15:15.220Z,88.06
2018-01-12T07:15:55.800Z,87.97
2018-01-12T07:16:36.366Z,88.35
2018-01-12T07:17:16.933Z,88.16
2018-01-12T07:17:57.538Z,88.44
2018-01-12T07:18:38.106Z,88.44
2018-01-12T07:19:18.672Z,88.44
2018-01-12T07:19:59.254Z,88.44
2018-01-12T07:20:39.815Z,88.92
2018-01-12T07:21:20.375Z,88.54
2018-01-12T07:22:00.942Z,89.11
2018-01-12T07:22:41.498Z,89.29
2018-01-12T07:23:22.059Z,89.48
2018-01-12T07:24:02.620Z,89.67
2018-01-12T07:24:43.320Z,89.29
2018-01-12T07:25:23.885Z,89.29
2018-01-12T07:26:04.494Z,88.92
2018-01-12T07:26:45.052Z,89.01
2018-01-12T07:27:25.613Z,89.01
2018-01-12T07:28:06.189Z,89.39
2018-01-12T07:28:46.752Z,89.2
2018-01-12T07:29:27.360Z,89.01
2018-01-12T07:30:07.952Z,88.92
2018-01-12T07:30:48.534Z,89.11
2018-01-12T07:31:29.130Z,89.58
2018-01-12T07:32:09.710Z,89.72
2018-01-12T07:32:50.319Z,90.05
2018-01-12T07:33:30.896Z,90.1
2018-01-12T07:34:11.464Z,90.01
2018-01-12T07:34:52.049Z,90.2
2018-01-12T07:35:32.641Z,90.29
2018-01-12T07:36:13.203Z,90.77
2018-01-12T07:36:53.771Z,90.67
2018-01-12T07:37:34.321Z,90.39
2018-01-12T07:38:14.910Z,90.77
2018-01-12T07:38:55.556Z,90.77
2018-01-12T07:39:36.125Z,90.86
2018-01-12T07:40:16.724Z,90.58
2018-01-12T07:40:57.316Z,90.2
2018-01-12T07:41:37.909Z,90.39
2018-01-12T07:42:18.475Z,90.62
2018-01-12T07:42:59.035Z,90.95
2018-01-12T07:43:39.593Z,90.48
2018-01-12T07:44:20.176Z,90.62
2018-01-12T07:45:00.760Z,90.01
2018-01-12T07:45:41.343Z,90.1
2018-01-12T07:46:21.914Z,89.72
2018-01-12T07:47:02.526Z,90.1
2018-01-12T07:47:43.127Z,90.29
2018-01-12T07:48:23.702Z,90.77
2018-01-12T07:49:04.311Z,90.77
2018-01-12T07:49:44.893Z,90.39
2018-01-12T07:50:25.469Z,90.58
2018-01-12T07:51:06.040Z,90.95
2018-01-12T07:51:46.614Z,90.95
2018-01-12T07:52:27.187Z,91.05
2018-01-12T07:53:07.759Z,90.77
2018-01-12T07:53:48.359Z,90.86
2018-01-12T07:54:28.979Z,91.33
2018-01-12T07:55:09.552Z,91.05
2018-01-12T07:55:50.125Z,91.05
2018-01-12T07:56:30.683Z,91.05
2018-01-12T07:57:11.239Z,91.05
2018-01-12T07:57:51.818Z,91.05
2018-01-12T07:58:32.392Z,91.62
2018-01-12T07:59:12.960Z,91.05
2018-01-12T07:59:55.368Z,91.05
2018-01-12T08:00:35.932Z,91.05
2018-01-12T08:01:16.492Z,91.71
2018-01-12T08:01:57.058Z,91.62
2018-01-12T08:02:37.690Z,91.43
2018-01-12T08:03:18.245Z,91.71
2018-01-12T08:03:58.822Z,91.71
2018-01-12T08:04:39.386Z,91.81
2018-01-12T08:05:19.938Z,91.81
2018-01-12T08:06:00.531Z,91.81
2018-01-12T08:06:41.095Z,91.24
2018-01-12T08:07:21.657Z,91.24
2018-01-12T08:08:02.246Z,91.71
2018-01-12T08:08:42.814Z,91.52
2018-01-12T08:09:23.384Z,91.33
2018-01-12T08:10:03.935Z,91.62
2018-01-12T08:10:44.489Z,91.71
2018-01-12T08:11:25.078Z,91.43
2018-01-12T08:12:05.638Z,91.33
2018-01-12T08:12:46.201Z,91.43
2018-01-12T08:13:26.756Z,91.24
2018-01-12T08:14:07.323Z,91.24
2018-01-12T08:14:47.888Z,91.9
2018-01-12T08:15:28.442Z,91.71
2018-01-12T08:16:09.014Z,91.81
2018-01-12T08:16:49.582Z,91.14
2018-01-12T08:17:30.142Z,91.14
2018-01-12T08:18:10.704Z,91.43
2018-01-12T08:18:51.250Z,91.43
2018-01-12T08:19:31.811Z,91.43
2018-01-12T08:20:12.375Z,91.14
2018-01-12T08:20:52.935Z,91.14
2018-01-12T08:21:33.501Z,91.52
2018-01-12T08:22:14.057Z,91.71
2018-01-12T08:22:54.647Z,91.62
2018-01-12T08:23:35.209Z,91.14
2018-01-12T08:24:15.805Z,91.81
2018-01-12T08:24:56.380Z,91.43
2018-01-12T08:25:36.945Z,91.52
2018-01-12T08:26:17.505Z,91.52
2018-01-12T08:26:58.058Z,91.71
2018-01-12T08:27:38.614Z,91.71
2018-01-12T08:28:19.174Z,91.24
2018-01-12T08:28:59.734Z,91.33
2018-01-12T08:29:40.312Z,91.24
2018-01-12T08:30:20.893Z,91.43
2018-01-12T08:31:01.440Z,91.52
2018-01-12T08:31:42.000Z,91.81
2018-01-12T08:32:22.566Z,91.62
2018-01-12T08:33:03.131Z,91.71
2018-01-12T08:33:43.694Z,91.43
2018-01-12T08:34:24.256Z,91.24
2018-01-12T08:35:04.832Z,91.62
2018-01-12T08:35:45.397Z,91.24
2018-01-12T08:36:25.971Z,91.43
2018-01-12T08:37:06.550Z,91.71
2018-01-12T08:37:47.131Z,91.71
2018-01-12T08:38:27.680Z,91.43
2018-01-12T08:39:08.232Z,91.24
2018-01-12T08:39:48.927Z,91.43
2018-01-12T08:40:29.484Z,91.43
2018-01-12T08:41:10.066Z,91.62
2018-01-12T08:41:50.638Z,92
2018-01-12T08:42:31.192Z,91.14
2018-01-12T08:43:11.764Z,91.71
2018-01-12T08:43:52.348Z,91.81
2018-01-12T08:44:32.922Z,91.62
2018-01-12T08:45:13.537Z,91.71